sensor_id;sensor_type;location;lat;lon;timestamp;P1;durP1;ratioP1;P2;durP2;ratioP2
49235;SDS011;35067;48.134;8.378;2023-04-03T00:00:02;20.65;;;9.20;;
49235;SDS011;35067;48.134;8.378;2023-04-03T00:01:10;20.10;;;10.07;;
49235;SDS011;35067;48.134;8.378;2023-04-03T00:02:16;11.85;;;7.35;;
49235;SDS011;35067;48.134;8.378;2023-04-03T00:03:21;18.30;;;8.38;;
49235;SDS011;35067;48.134;8.378;2023-04-03T00:04:27;19.08;;;9.88;;
49235;SDS011;35067;48.134;8.378;2023-04-03T00:05:33;15.05;;;8.20;;
49235;SDS011;35067;48.134;8.378;2023-04-03T00:06:39;11.35;;;6.90;;
49235;SDS011;35067;48.134;8.378;2023-04-03T00:07:45;10.23;;;6.75;;
49235;SDS011;35067;48.134;8.378;2023-04-03T00:08:50;10.35;;;6.65;;
49235;SDS011;35067;48.134;8.378;2023-04-03T00:09:56;9.95;;;6.20;;
49235;SDS011;35067;48.134;8.378;2023-04-03T00:11:03;11.93;;;7.03;;
49235;SDS011;35067;48.134;8.378;2023-04-03T00:12:09;15.95;;;7.65;;
49235;SDS011;35067;48.134;8.378;2023-04-03T00:13:15;17.27;;;7.75;;
49235;SDS011;35067;48.134;8.378;2023-04-03T00:14:21;16.20;;;7.88;;
49235;SDS011;35067;48.134;8.378;2023-04-03T00:15:27;14.10;;;8.40;;
49235;SDS011;35067;48.134;8.378;2023-04-03T00:16:33;15.07;;;6.95;;
49235;SDS011;35067;48.134;8.378;2023-04-03T00:17:38;12.10;;;6.93;;
49235;SDS011;35067;48.134;8.378;2023-04-03T00:18:44;12.15;;;7.50;;
49235;SDS011;35067;48.134;8.378;2023-04-03T00:19:50;12.40;;;7.72;;
49235;SDS011;35067;48.134;8.378;2023-04-03T00:20:56;12.68;;;7.53;;
49235;SDS011;35067;48.134;8.378;2023-04-03T00:22:01;13.77;;;8.02;;
49235;SDS011;35067;48.134;8.378;2023-04-03T00:23:04;15.38;;;8.02;;
49235;SDS011;35067;48.134;8.378;2023-04-03T00:24:09;12.73;;;7.82;;
49235;SDS011;35067;48.134;8.378;2023-04-03T00:25:14;11.60;;;7.13;;
49235;SDS011;35067;48.134;8.378;2023-04-03T00:26:20;11.80;;;7.53;;
49235;SDS011;35067;48.134;8.378;2023-04-03T00:27:26;13.23;;;8.13;;
49235;SDS011;35067;48.134;8.378;2023-04-03T00:28:32;13.32;;;7.03;;
49235;SDS011;35067;48.134;8.378;2023-04-03T00:29:37;11.82;;;7.63;;
49235;SDS011;35067;48.134;8.378;2023-04-03T00:30:43;13.18;;;7.22;;
49235;SDS011;35067;48.134;8.378;2023-04-03T00:31:49;15.70;;;8.13;;
49235;SDS011;35067;48.134;8.378;2023-04-03T00:32:55;11.50;;;7.65;;
49235;SDS011;35067;48.134;8.378;2023-04-03T00:34:01;11.35;;;7.40;;
49235;SDS011;35067;48.134;8.378;2023-04-03T00:35:04;9.32;;;6.70;;
49235;SDS011;35067;48.134;8.378;2023-04-03T00:36:09;9.45;;;6.85;;
49235;SDS011;35067;48.134;8.378;2023-04-03T00:37:16;10.93;;;6.65;;
49235;SDS011;35067;48.134;8.378;2023-04-03T00:38:21;11.02;;;7.90;;
49235;SDS011;35067;48.134;8.378;2023-04-03T00:39:27;14.85;;;7.05;;
49235;SDS011;35067;48.134;8.378;2023-04-03T00:40:36;9.95;;;6.95;;
49235;SDS011;35067;48.134;8.378;2023-04-03T00:41:46;12.60;;;6.75;;
49235;SDS011;35067;48.134;8.378;2023-04-03T00:42:55;11.88;;;6.95;;
49235;SDS011;35067;48.134;8.378;2023-04-03T00:45:49;8.70;;;6.68;;
49235;SDS011;35067;48.134;8.378;2023-04-03T00:46:56;11.48;;;7.07;;
49235;SDS011;35067;48.134;8.378;2023-04-03T00:48:03;11.35;;;7.22;;
49235;SDS011;35067;48.134;8.378;2023-04-03T00:49:09;12.98;;;7.93;;
49235;SDS011;35067;48.134;8.378;2023-04-03T00:50:15;11.18;;;7.10;;
49235;SDS011;35067;48.134;8.378;2023-04-03T00:51:24;12.02;;;7.13;;
49235;SDS011;35067;48.134;8.378;2023-04-03T00:52:31;11.82;;;6.93;;
49235;SDS011;35067;48.134;8.378;2023-04-03T00:53:47;16.08;;;9.05;;
49235;SDS011;35067;48.134;8.378;2023-04-03T00:55:00;19.52;;;9.43;;
49235;SDS011;35067;48.134;8.378;2023-04-03T00:56:09;22.08;;;8.95;;
49235;SDS011;35067;48.134;8.378;2023-04-03T00:57:18;10.20;;;6.93;;
49235;SDS011;35067;48.134;8.378;2023-04-03T00:58:34;11.57;;;6.97;;
49235;SDS011;35067;48.134;8.378;2023-04-03T00:59:47;17.63;;;7.53;;
49235;SDS011;35067;48.134;8.378;2023-04-03T01:00:57;11.25;;;7.45;;
49235;SDS011;35067;48.134;8.378;2023-04-03T01:02:04;9.57;;;6.72;;
49235;SDS011;35067;48.134;8.378;2023-04-03T01:03:09;11.48;;;7.55;;
49235;SDS011;35067;48.134;8.378;2023-04-03T01:05:50;11.82;;;7.40;;
49235;SDS011;35067;48.134;8.378;2023-04-03T01:06:57;12.07;;;7.00;;
49235;SDS011;35067;48.134;8.378;2023-04-03T01:08:09;13.25;;;7.30;;
49235;SDS011;35067;48.134;8.378;2023-04-03T01:09:15;11.82;;;7.18;;
49235;SDS011;35067;48.134;8.378;2023-04-03T01:10:21;12.95;;;8.15;;
49235;SDS011;35067;48.134;8.378;2023-04-03T01:11:27;18.23;;;9.68;;
49235;SDS011;35067;48.134;8.378;2023-04-03T01:12:34;14.95;;;7.07;;
49235;SDS011;35067;48.134;8.378;2023-04-03T01:13:42;12.93;;;7.22;;
49235;SDS011;35067;48.134;8.378;2023-04-03T01:14:50;16.17;;;8.43;;
49235;SDS011;35067;48.134;8.378;2023-04-03T01:16:02;10.82;;;7.25;;
49235;SDS011;35067;48.134;8.378;2023-04-03T01:18:49;10.60;;;6.40;;
49235;SDS011;35067;48.134;8.378;2023-04-03T01:20:03;10.23;;;6.50;;
49235;SDS011;35067;48.134;8.378;2023-04-03T01:25:54;10.63;;;6.43;;
49235;SDS011;35067;48.134;8.378;2023-04-03T01:27:03;9.15;;;6.13;;
49235;SDS011;35067;48.134;8.378;2023-04-03T01:28:10;9.52;;;6.50;;
49235;SDS011;35067;48.134;8.378;2023-04-03T01:29:20;10.70;;;6.68;;
49235;SDS011;35067;48.134;8.378;2023-04-03T01:30:28;10.63;;;6.85;;
49235;SDS011;35067;48.134;8.378;2023-04-03T01:33:04;9.43;;;6.55;;
49235;SDS011;35067;48.134;8.378;2023-04-03T01:34:09;11.05;;;7.18;;
49235;SDS011;35067;48.134;8.378;2023-04-03T01:35:15;14.85;;;7.65;;
49235;SDS011;35067;48.134;8.378;2023-04-03T01:36:22;9.05;;;6.20;;
49235;SDS011;35067;48.134;8.378;2023-04-03T01:37:33;8.98;;;5.78;;
49235;SDS011;35067;48.134;8.378;2023-04-03T01:38:39;10.63;;;6.50;;
49235;SDS011;35067;48.134;8.378;2023-04-03T01:39:44;12.70;;;6.78;;
49235;SDS011;35067;48.134;8.378;2023-04-03T01:40:50;7.32;;;5.80;;
49235;SDS011;35067;48.134;8.378;2023-04-03T01:41:56;8.77;;;6.07;;
49235;SDS011;35067;48.134;8.378;2023-04-03T01:43:04;8.77;;;6.13;;
49235;SDS011;35067;48.134;8.378;2023-04-03T01:44:09;10.02;;;6.40;;
49235;SDS011;35067;48.134;8.378;2023-04-03T01:45:14;10.55;;;6.72;;
49235;SDS011;35067;48.134;8.378;2023-04-03T01:46:20;8.48;;;5.88;;
49235;SDS011;35067;48.134;8.378;2023-04-03T01:47:27;7.82;;;5.57;;
49235;SDS011;35067;48.134;8.378;2023-04-03T01:48:33;7.63;;;5.20;;
49235;SDS011;35067;48.134;8.378;2023-04-03T01:49:39;8.80;;;5.72;;
49235;SDS011;35067;48.134;8.378;2023-04-03T01:50:45;7.82;;;5.32;;
49235;SDS011;35067;48.134;8.378;2023-04-03T01:51:51;7.78;;;5.22;;
49235;SDS011;35067;48.134;8.378;2023-04-03T01:52:56;7.65;;;5.72;;
49235;SDS011;35067;48.134;8.378;2023-04-03T01:54:02;8.23;;;5.65;;
49235;SDS011;35067;48.134;8.378;2023-04-03T01:55:04;8.57;;;5.32;;
49235;SDS011;35067;48.134;8.378;2023-04-03T01:56:09;9.57;;;5.57;;
49235;SDS011;35067;48.134;8.378;2023-04-03T01:57:14;9.10;;;5.75;;
49235;SDS011;35067;48.134;8.378;2023-04-03T01:58:21;9.02;;;5.82;;
49235;SDS011;35067;48.134;8.378;2023-04-03T01:59:26;8.77;;;5.18;;
49235;SDS011;35067;48.134;8.378;2023-04-03T02:00:33;10.25;;;5.97;;
49235;SDS011;35067;48.134;8.378;2023-04-03T02:01:38;10.48;;;6.03;;
49235;SDS011;35067;48.134;8.378;2023-04-03T02:02:44;6.78;;;4.80;;
49235;SDS011;35067;48.134;8.378;2023-04-03T02:03:50;7.75;;;5.40;;
49235;SDS011;35067;48.134;8.378;2023-04-03T02:04:56;6.32;;;4.90;;
49235;SDS011;35067;48.134;8.378;2023-04-03T02:06:01;9.32;;;6.13;;
49235;SDS011;35067;48.134;8.378;2023-04-03T02:07:04;7.60;;;5.15;;
49235;SDS011;35067;48.134;8.378;2023-04-03T02:08:09;7.25;;;5.13;;
49235;SDS011;35067;48.134;8.378;2023-04-03T02:09:14;8.43;;;5.60;;
49235;SDS011;35067;48.134;8.378;2023-04-03T02:10:20;10.10;;;6.20;;
49235;SDS011;35067;48.134;8.378;2023-04-03T02:11:26;8.25;;;5.00;;
49235;SDS011;35067;48.134;8.378;2023-04-03T02:12:32;8.57;;;5.53;;
49235;SDS011;35067;48.134;8.378;2023-04-03T02:13:38;11.65;;;6.10;;
49235;SDS011;35067;48.134;8.378;2023-04-03T02:14:43;13.02;;;6.68;;
49235;SDS011;35067;48.134;8.378;2023-04-03T02:15:49;9.25;;;5.93;;
49235;SDS011;35067;48.134;8.378;2023-04-03T02:16:55;8.15;;;5.63;;
49235;SDS011;35067;48.134;8.378;2023-04-03T02:18:00;8.57;;;5.57;;
49235;SDS011;35067;48.134;8.378;2023-04-03T02:19:04;10.63;;;5.82;;
49235;SDS011;35067;48.134;8.378;2023-04-03T02:20:09;15.35;;;7.63;;
49235;SDS011;35067;48.134;8.378;2023-04-03T02:21:15;7.70;;;5.40;;
49235;SDS011;35067;48.134;8.378;2023-04-03T02:22:21;11.43;;;6.55;;
49235;SDS011;35067;48.134;8.378;2023-04-03T02:23:26;8.55;;;5.85;;
49235;SDS011;35067;48.134;8.378;2023-04-03T02:24:32;9.15;;;5.63;;
49235;SDS011;35067;48.134;8.378;2023-04-03T02:25:38;9.73;;;6.45;;
49235;SDS011;35067;48.134;8.378;2023-04-03T02:26:43;11.63;;;5.63;;
49235;SDS011;35067;48.134;8.378;2023-04-03T02:27:49;8.00;;;5.50;;
49235;SDS011;35067;48.134;8.378;2023-04-03T02:28:55;11.10;;;7.07;;
49235;SDS011;35067;48.134;8.378;2023-04-03T02:30:01;8.10;;;5.38;;
49235;SDS011;35067;48.134;8.378;2023-04-03T02:31:04;7.82;;;5.07;;
49235;SDS011;35067;48.134;8.378;2023-04-03T02:32:09;7.88;;;5.82;;
49235;SDS011;35067;48.134;8.378;2023-04-03T02:33:14;8.20;;;5.90;;
49235;SDS011;35067;48.134;8.378;2023-04-03T02:34:20;9.40;;;5.90;;
49235;SDS011;35067;48.134;8.378;2023-04-03T02:35:26;9.65;;;6.13;;
49235;SDS011;35067;48.134;8.378;2023-04-03T02:36:32;14.07;;;7.40;;
49235;SDS011;35067;48.134;8.378;2023-04-03T02:37:37;16.23;;;7.13;;
49235;SDS011;35067;48.134;8.378;2023-04-03T02:38:44;18.38;;;8.73;;
49235;SDS011;35067;48.134;8.378;2023-04-03T02:39:50;13.77;;;7.60;;
49235;SDS011;35067;48.134;8.378;2023-04-03T02:40:59;18.40;;;8.23;;
49235;SDS011;35067;48.134;8.378;2023-04-03T02:42:09;9.85;;;6.47;;
49235;SDS011;35067;48.134;8.378;2023-04-03T02:43:15;13.18;;;6.00;;
49235;SDS011;35067;48.134;8.378;2023-04-03T02:44:21;16.38;;;7.65;;
49235;SDS011;35067;48.134;8.378;2023-04-03T02:45:28;21.05;;;9.27;;
49235;SDS011;35067;48.134;8.378;2023-04-03T02:46:34;19.63;;;7.03;;
49235;SDS011;35067;48.134;8.378;2023-04-03T02:47:40;12.52;;;6.93;;
49235;SDS011;35067;48.134;8.378;2023-04-03T02:48:46;12.38;;;6.70;;
49235;SDS011;35067;48.134;8.378;2023-04-03T02:49:51;12.10;;;6.32;;
49235;SDS011;35067;48.134;8.378;2023-04-03T02:50:57;10.73;;;5.65;;
49235;SDS011;35067;48.134;8.378;2023-04-03T02:52:03;20.45;;;10.25;;
49235;SDS011;35067;48.134;8.378;2023-04-03T02:53:09;12.80;;;7.53;;
49235;SDS011;35067;48.134;8.378;2023-04-03T02:54:15;12.52;;;6.65;;
49235;SDS011;35067;48.134;8.378;2023-04-03T02:55:20;19.30;;;8.85;;
49235;SDS011;35067;48.134;8.378;2023-04-03T02:56:26;11.35;;;6.80;;
49235;SDS011;35067;48.134;8.378;2023-04-03T02:57:32;15.25;;;7.15;;
49235;SDS011;35067;48.134;8.378;2023-04-03T02:58:38;73.05;;;13.75;;
49235;SDS011;35067;48.134;8.378;2023-04-03T02:59:44;14.98;;;7.82;;
49235;SDS011;35067;48.134;8.378;2023-04-03T03:00:50;13.57;;;7.07;;
49235;SDS011;35067;48.134;8.378;2023-04-03T03:01:55;12.30;;;6.70;;
49235;SDS011;35067;48.134;8.378;2023-04-03T03:03:01;11.63;;;6.82;;
49235;SDS011;35067;48.134;8.378;2023-04-03T03:04:04;21.20;;;9.02;;
49235;SDS011;35067;48.134;8.378;2023-04-03T03:05:09;16.25;;;8.15;;
49235;SDS011;35067;48.134;8.378;2023-04-03T03:06:15;9.15;;;6.40;;
49235;SDS011;35067;48.134;8.378;2023-04-03T03:07:22;12.93;;;7.60;;
49235;SDS011;35067;48.134;8.378;2023-04-03T03:08:28;12.15;;;6.32;;
49235;SDS011;35067;48.134;8.378;2023-04-03T03:09:33;13.00;;;7.32;;
49235;SDS011;35067;48.134;8.378;2023-04-03T03:10:39;15.18;;;8.45;;
49235;SDS011;35067;48.134;8.378;2023-04-03T03:11:45;14.40;;;7.43;;
49235;SDS011;35067;48.134;8.378;2023-04-03T03:12:50;9.50;;;6.20;;
49235;SDS011;35067;48.134;8.378;2023-04-03T03:13:56;10.82;;;6.55;;
49235;SDS011;35067;48.134;8.378;2023-04-03T03:15:02;9.60;;;6.70;;
49235;SDS011;35067;48.134;8.378;2023-04-03T03:16:04;9.10;;;5.53;;
49235;SDS011;35067;48.134;8.378;2023-04-03T03:17:09;11.50;;;7.00;;
49235;SDS011;35067;48.134;8.378;2023-04-03T03:18:14;10.27;;;6.78;;
49235;SDS011;35067;48.134;8.378;2023-04-03T03:19:20;11.18;;;6.82;;
49235;SDS011;35067;48.134;8.378;2023-04-03T03:20:26;9.05;;;5.95;;
49235;SDS011;35067;48.134;8.378;2023-04-03T03:21:31;11.52;;;6.95;;
49235;SDS011;35067;48.134;8.378;2023-04-03T03:22:37;10.00;;;6.82;;
49235;SDS011;35067;48.134;8.378;2023-04-03T03:23:43;9.77;;;6.47;;
49235;SDS011;35067;48.134;8.378;2023-04-03T03:24:49;10.07;;;6.72;;
49235;SDS011;35067;48.134;8.378;2023-04-03T03:25:58;10.15;;;7.07;;
49235;SDS011;35067;48.134;8.378;2023-04-03T03:27:04;11.95;;;6.68;;
49235;SDS011;35067;48.134;8.378;2023-04-03T03:28:09;12.55;;;7.90;;
49235;SDS011;35067;48.134;8.378;2023-04-03T03:29:14;12.55;;;8.25;;
49235;SDS011;35067;48.134;8.378;2023-04-03T03:30:20;10.68;;;7.50;;
49235;SDS011;35067;48.134;8.378;2023-04-03T03:31:26;15.85;;;8.55;;
49235;SDS011;35067;48.134;8.378;2023-04-03T03:32:32;11.25;;;7.38;;
49235;SDS011;35067;48.134;8.378;2023-04-03T03:33:38;15.35;;;7.82;;
49235;SDS011;35067;48.134;8.378;2023-04-03T03:34:43;10.75;;;7.22;;
49235;SDS011;35067;48.134;8.378;2023-04-03T03:35:49;12.32;;;7.18;;
49235;SDS011;35067;48.134;8.378;2023-04-03T03:36:55;10.85;;;6.93;;
49235;SDS011;35067;48.134;8.378;2023-04-03T03:38:01;14.48;;;8.35;;
49235;SDS011;35067;48.134;8.378;2023-04-03T03:39:04;13.63;;;7.50;;
49235;SDS011;35067;48.134;8.378;2023-04-03T03:40:09;11.88;;;7.07;;
49235;SDS011;35067;48.134;8.378;2023-04-03T03:41:17;13.07;;;7.60;;
49235;SDS011;35067;48.134;8.378;2023-04-03T03:42:23;12.68;;;8.45;;
49235;SDS011;35067;48.134;8.378;2023-04-03T03:43:28;14.32;;;8.63;;
49235;SDS011;35067;48.134;8.378;2023-04-03T03:44:35;14.07;;;8.13;;
49235;SDS011;35067;48.134;8.378;2023-04-03T03:45:40;14.85;;;9.48;;
49235;SDS011;35067;48.134;8.378;2023-04-03T03:46:46;12.80;;;8.35;;
49235;SDS011;35067;48.134;8.378;2023-04-03T03:47:52;14.52;;;8.82;;
49235;SDS011;35067;48.134;8.378;2023-04-03T03:48:58;14.38;;;9.15;;
49235;SDS011;35067;48.134;8.378;2023-04-03T03:50:04;13.23;;;8.52;;
49235;SDS011;35067;48.134;8.378;2023-04-03T03:51:09;15.75;;;8.20;;
49235;SDS011;35067;48.134;8.378;2023-04-03T03:52:14;15.73;;;7.95;;
49235;SDS011;35067;48.134;8.378;2023-04-03T03:53:20;13.88;;;8.45;;
49235;SDS011;35067;48.134;8.378;2023-04-03T03:54:26;13.18;;;8.52;;
49235;SDS011;35067;48.134;8.378;2023-04-03T03:55:31;26.88;;;9.15;;
49235;SDS011;35067;48.134;8.378;2023-04-03T03:56:37;17.27;;;10.02;;
49235;SDS011;35067;48.134;8.378;2023-04-03T03:57:43;14.20;;;8.43;;
49235;SDS011;35067;48.134;8.378;2023-04-03T03:58:48;13.45;;;7.88;;
49235;SDS011;35067;48.134;8.378;2023-04-03T03:59:54;15.02;;;9.52;;
49235;SDS011;35067;48.134;8.378;2023-04-03T04:01:01;15.43;;;8.57;;
49235;SDS011;35067;48.134;8.378;2023-04-03T04:02:04;13.55;;;8.40;;
49235;SDS011;35067;48.134;8.378;2023-04-03T04:03:09;19.85;;;12.43;;
49235;SDS011;35067;48.134;8.378;2023-04-03T04:04:14;18.92;;;11.75;;
49235;SDS011;35067;48.134;8.378;2023-04-03T04:05:20;14.15;;;8.90;;
49235;SDS011;35067;48.134;8.378;2023-04-03T04:06:26;13.13;;;8.00;;
49235;SDS011;35067;48.134;8.378;2023-04-03T04:07:32;16.25;;;8.93;;
49235;SDS011;35067;48.134;8.378;2023-04-03T04:08:38;16.83;;;8.82;;
49235;SDS011;35067;48.134;8.378;2023-04-03T04:09:43;16.52;;;10.18;;
49235;SDS011;35067;48.134;8.378;2023-04-03T04:10:49;16.52;;;11.30;;
49235;SDS011;35067;48.134;8.378;2023-04-03T04:11:55;18.77;;;9.85;;
49235;SDS011;35067;48.134;8.378;2023-04-03T04:13:01;14.60;;;8.65;;
49235;SDS011;35067;48.134;8.378;2023-04-03T04:14:04;17.30;;;9.77;;
49235;SDS011;35067;48.134;8.378;2023-04-03T04:15:09;14.05;;;8.77;;
49235;SDS011;35067;48.134;8.378;2023-04-03T04:16:15;15.88;;;8.93;;
49235;SDS011;35067;48.134;8.378;2023-04-03T04:17:21;14.25;;;8.95;;
49235;SDS011;35067;48.134;8.378;2023-04-03T04:18:27;13.15;;;8.38;;
49235;SDS011;35067;48.134;8.378;2023-04-03T04:19:33;14.65;;;8.98;;
49235;SDS011;35067;48.134;8.378;2023-04-03T04:20:38;12.82;;;8.52;;
49235;SDS011;35067;48.134;8.378;2023-04-03T04:21:44;13.00;;;8.20;;
49235;SDS011;35067;48.134;8.378;2023-04-03T04:22:50;14.60;;;8.38;;
49235;SDS011;35067;48.134;8.378;2023-04-03T04:23:56;13.15;;;8.57;;
49235;SDS011;35067;48.134;8.378;2023-04-03T04:25:02;14.00;;;8.57;;
49235;SDS011;35067;48.134;8.378;2023-04-03T04:26:04;14.32;;;8.75;;
49235;SDS011;35067;48.134;8.378;2023-04-03T04:27:09;14.50;;;8.63;;
49235;SDS011;35067;48.134;8.378;2023-04-03T04:28:15;13.38;;;8.45;;
49235;SDS011;35067;48.134;8.378;2023-04-03T04:29:21;16.67;;;9.45;;
49235;SDS011;35067;48.134;8.378;2023-04-03T04:30:27;16.35;;;9.70;;
49235;SDS011;35067;48.134;8.378;2023-04-03T04:31:33;20.33;;;15.63;;
49235;SDS011;35067;48.134;8.378;2023-04-03T04:32:38;15.48;;;9.90;;
49235;SDS011;35067;48.134;8.378;2023-04-03T04:33:44;17.52;;;8.55;;
49235;SDS011;35067;48.134;8.378;2023-04-03T04:34:50;15.68;;;9.20;;
49235;SDS011;35067;48.134;8.378;2023-04-03T04:35:56;14.88;;;9.15;;
49235;SDS011;35067;48.134;8.378;2023-04-03T04:37:01;17.05;;;9.05;;
49235;SDS011;35067;48.134;8.378;2023-04-03T04:38:04;15.63;;;8.88;;
49235;SDS011;35067;48.134;8.378;2023-04-03T04:39:09;16.27;;;10.32;;
49235;SDS011;35067;48.134;8.378;2023-04-03T04:40:14;14.63;;;8.95;;
49235;SDS011;35067;48.134;8.378;2023-04-03T04:41:21;12.73;;;8.18;;
49235;SDS011;35067;48.134;8.378;2023-04-03T04:42:30;14.75;;;8.82;;
49235;SDS011;35067;48.134;8.378;2023-04-03T04:43:35;12.82;;;8.75;;
49235;SDS011;35067;48.134;8.378;2023-04-03T04:44:41;14.35;;;8.77;;
49235;SDS011;35067;48.134;8.378;2023-04-03T04:45:47;11.85;;;8.32;;
49235;SDS011;35067;48.134;8.378;2023-04-03T04:46:53;15.88;;;8.63;;
49235;SDS011;35067;48.134;8.378;2023-04-03T04:47:59;15.40;;;8.05;;
49235;SDS011;35067;48.134;8.378;2023-04-03T04:49:04;12.65;;;8.27;;
49235;SDS011;35067;48.134;8.378;2023-04-03T04:50:09;13.38;;;8.73;;
49235;SDS011;35067;48.134;8.378;2023-04-03T04:51:16;14.30;;;8.90;;
49235;SDS011;35067;48.134;8.378;2023-04-03T04:52:22;13.20;;;8.63;;
49235;SDS011;35067;48.134;8.378;2023-04-03T04:53:27;15.00;;;8.57;;
49235;SDS011;35067;48.134;8.378;2023-04-03T04:54:33;14.35;;;7.93;;
49235;SDS011;35067;48.134;8.378;2023-04-03T04:55:39;13.23;;;8.32;;
49235;SDS011;35067;48.134;8.378;2023-04-03T04:56:45;11.85;;;7.53;;
49235;SDS011;35067;48.134;8.378;2023-04-03T04:57:50;14.52;;;8.63;;
49235;SDS011;35067;48.134;8.378;2023-04-03T04:58:56;15.75;;;8.98;;
49235;SDS011;35067;48.134;8.378;2023-04-03T05:00:02;12.45;;;7.60;;
49235;SDS011;35067;48.134;8.378;2023-04-03T05:01:05;13.10;;;7.93;;
49235;SDS011;35067;48.134;8.378;2023-04-03T05:02:09;13.38;;;8.50;;
49235;SDS011;35067;48.134;8.378;2023-04-03T05:03:14;12.35;;;7.88;;
49235;SDS011;35067;48.134;8.378;2023-04-03T05:04:20;12.80;;;8.32;;
49235;SDS011;35067;48.134;8.378;2023-04-03T05:05:26;12.90;;;8.02;;
49235;SDS011;35067;48.134;8.378;2023-04-03T05:06:32;15.68;;;9.35;;
49235;SDS011;35067;48.134;8.378;2023-04-03T05:07:40;12.05;;;7.63;;
49235;SDS011;35067;48.134;8.378;2023-04-03T05:08:46;11.45;;;7.70;;
49235;SDS011;35067;48.134;8.378;2023-04-03T05:09:51;12.77;;;8.35;;
49235;SDS011;35067;48.134;8.378;2023-04-03T05:10:57;13.77;;;7.72;;
49235;SDS011;35067;48.134;8.378;2023-04-03T05:12:03;13.18;;;8.82;;
49235;SDS011;35067;48.134;8.378;2023-04-03T05:13:09;15.40;;;8.30;;
49235;SDS011;35067;48.134;8.378;2023-04-03T05:14:15;14.45;;;8.10;;
49235;SDS011;35067;48.134;8.378;2023-04-03T05:15:20;13.52;;;8.40;;
49235;SDS011;35067;48.134;8.378;2023-04-03T05:16:26;11.48;;;7.47;;
49235;SDS011;35067;48.134;8.378;2023-04-03T05:17:32;12.80;;;7.70;;
49235;SDS011;35067;48.134;8.378;2023-04-03T05:18:38;11.73;;;8.00;;
49235;SDS011;35067;48.134;8.378;2023-04-03T05:19:43;13.02;;;7.90;;
49235;SDS011;35067;48.134;8.378;2023-04-03T05:20:49;13.45;;;7.45;;
49235;SDS011;35067;48.134;8.378;2023-04-03T05:21:55;12.20;;;7.97;;
49235;SDS011;35067;48.134;8.378;2023-04-03T05:23:01;12.18;;;7.65;;
49235;SDS011;35067;48.134;8.378;2023-04-03T05:24:04;12.75;;;8.10;;
49235;SDS011;35067;48.134;8.378;2023-04-03T05:25:09;11.63;;;7.68;;
49235;SDS011;35067;48.134;8.378;2023-04-03T05:26:15;11.98;;;8.00;;
49235;SDS011;35067;48.134;8.378;2023-04-03T05:27:20;13.15;;;8.02;;
49235;SDS011;35067;48.134;8.378;2023-04-03T05:28:28;15.98;;;9.63;;
49235;SDS011;35067;48.134;8.378;2023-04-03T05:29:34;11.75;;;6.97;;
49235;SDS011;35067;48.134;8.378;2023-04-03T05:30:40;13.63;;;8.18;;
49235;SDS011;35067;48.134;8.378;2023-04-03T05:31:46;11.00;;;7.80;;
49235;SDS011;35067;48.134;8.378;2023-04-03T05:32:55;14.45;;;8.30;;
49235;SDS011;35067;48.134;8.378;2023-04-03T05:34:01;11.35;;;7.60;;
49235;SDS011;35067;48.134;8.378;2023-04-03T05:35:04;12.95;;;7.35;;
49235;SDS011;35067;48.134;8.378;2023-04-03T05:36:09;12.85;;;8.30;;
49235;SDS011;35067;48.134;8.378;2023-04-03T05:37:14;11.90;;;7.43;;
49235;SDS011;35067;48.134;8.378;2023-04-03T05:38:20;13.45;;;7.63;;
49235;SDS011;35067;48.134;8.378;2023-04-03T05:39:26;12.73;;;7.90;;
49235;SDS011;35067;48.134;8.378;2023-04-03T05:40:31;11.40;;;7.70;;
49235;SDS011;35067;48.134;8.378;2023-04-03T05:41:37;12.48;;;7.53;;
49235;SDS011;35067;48.134;8.378;2023-04-03T05:42:43;12.98;;;7.88;;
49235;SDS011;35067;48.134;8.378;2023-04-03T05:43:49;12.57;;;8.10;;
49235;SDS011;35067;48.134;8.378;2023-04-03T05:44:55;15.55;;;7.78;;
49235;SDS011;35067;48.134;8.378;2023-04-03T05:46:00;14.23;;;8.50;;
49235;SDS011;35067;48.134;8.378;2023-04-03T05:47:04;12.68;;;7.70;;
49235;SDS011;35067;48.134;8.378;2023-04-03T05:48:09;10.77;;;6.97;;
49235;SDS011;35067;48.134;8.378;2023-04-03T05:49:15;12.45;;;7.63;;
49235;SDS011;35067;48.134;8.378;2023-04-03T05:50:21;11.70;;;7.55;;
49235;SDS011;35067;48.134;8.378;2023-04-03T05:51:34;11.43;;;6.45;;
49235;SDS011;35067;48.134;8.378;2023-04-03T05:52:43;12.98;;;7.50;;
49235;SDS011;35067;48.134;8.378;2023-04-03T05:53:52;9.60;;;6.60;;
49235;SDS011;35067;48.134;8.378;2023-04-03T05:55:04;10.70;;;6.93;;
49235;SDS011;35067;48.134;8.378;2023-04-03T05:56:09;9.40;;;6.07;;
49235;SDS011;35067;48.134;8.378;2023-04-03T05:57:15;8.80;;;5.82;;
49235;SDS011;35067;48.134;8.378;2023-04-03T05:58:21;12.43;;;7.78;;
49235;SDS011;35067;48.134;8.378;2023-04-03T05:59:26;9.65;;;6.28;;
49235;SDS011;35067;48.134;8.378;2023-04-03T06:00:32;10.25;;;6.05;;
49235;SDS011;35067;48.134;8.378;2023-04-03T06:01:38;11.18;;;6.60;;
49235;SDS011;35067;48.134;8.378;2023-04-03T06:02:44;10.43;;;6.13;;
49235;SDS011;35067;48.134;8.378;2023-04-03T06:03:49;8.85;;;6.25;;
49235;SDS011;35067;48.134;8.378;2023-04-03T06:04:55;9.07;;;5.63;;
49235;SDS011;35067;48.134;8.378;2023-04-03T06:06:02;10.25;;;5.95;;
49235;SDS011;35067;48.134;8.378;2023-04-03T06:07:15;10.88;;;6.05;;
49235;SDS011;35067;48.134;8.378;2023-04-03T06:08:25;7.55;;;5.50;;
49235;SDS011;35067;48.134;8.378;2023-04-03T06:09:31;10.20;;;6.13;;
49235;SDS011;35067;48.134;8.378;2023-04-03T06:10:37;7.70;;;4.90;;
49235;SDS011;35067;48.134;8.378;2023-04-03T06:11:43;8.80;;;5.85;;
49235;SDS011;35067;48.134;8.378;2023-04-03T06:12:50;9.70;;;5.82;;
49235;SDS011;35067;48.134;8.378;2023-04-03T06:13:56;10.52;;;5.43;;
49235;SDS011;35067;48.134;8.378;2023-04-03T06:15:02;9.23;;;6.20;;
49235;SDS011;35067;48.134;8.378;2023-04-03T06:16:04;9.65;;;7.00;;
49235;SDS011;35067;48.134;8.378;2023-04-03T06:17:09;9.82;;;6.88;;
49235;SDS011;35067;48.134;8.378;2023-04-03T06:18:17;8.32;;;5.22;;
49235;SDS011;35067;48.134;8.378;2023-04-03T06:19:22;8.52;;;5.45;;
49235;SDS011;35067;48.134;8.378;2023-04-03T06:20:28;7.22;;;5.30;;
49235;SDS011;35067;48.134;8.378;2023-04-03T06:21:34;9.43;;;5.63;;
49235;SDS011;35067;48.134;8.378;2023-04-03T06:22:40;8.20;;;5.10;;
49235;SDS011;35067;48.134;8.378;2023-04-03T06:23:46;8.20;;;5.50;;
49235;SDS011;35067;48.134;8.378;2023-04-03T06:24:52;8.70;;;5.75;;
49235;SDS011;35067;48.134;8.378;2023-04-03T06:25:58;7.07;;;5.32;;
49235;SDS011;35067;48.134;8.378;2023-04-03T06:27:04;8.82;;;5.65;;
49235;SDS011;35067;48.134;8.378;2023-04-03T06:28:09;7.43;;;5.20;;
49235;SDS011;35067;48.134;8.378;2023-04-03T06:29:15;8.32;;;5.05;;
49235;SDS011;35067;48.134;8.378;2023-04-03T06:30:20;7.70;;;5.40;;
49235;SDS011;35067;48.134;8.378;2023-04-03T06:31:26;7.00;;;5.13;;
49235;SDS011;35067;48.134;8.378;2023-04-03T06:32:32;6.68;;;4.93;;
49235;SDS011;35067;48.134;8.378;2023-04-03T06:33:38;8.52;;;4.75;;
49235;SDS011;35067;48.134;8.378;2023-04-03T06:34:43;9.25;;;5.25;;
49235;SDS011;35067;48.134;8.378;2023-04-03T06:35:55;7.28;;;5.20;;
49235;SDS011;35067;48.134;8.378;2023-04-03T06:37:03;7.10;;;5.00;;
49235;SDS011;35067;48.134;8.378;2023-04-03T06:38:04;6.07;;;4.40;;
49235;SDS011;35067;48.134;8.378;2023-04-03T06:39:15;6.90;;;4.82;;
49235;SDS011;35067;48.134;8.378;2023-04-03T06:40:25;8.10;;;4.97;;
49235;SDS011;35067;48.134;8.378;2023-04-03T06:41:31;7.18;;;5.13;;
49235;SDS011;35067;48.134;8.378;2023-04-03T06:42:37;7.50;;;4.80;;
49235;SDS011;35067;48.134;8.378;2023-04-03T06:43:43;6.40;;;4.70;;
49235;SDS011;35067;48.134;8.378;2023-04-03T06:44:49;8.40;;;4.82;;